createdAt,value
2022-09-23T00:04:08.286Z,6.89
2022-09-23T00:12:31.477Z,6.79
2022-09-23T00:20:54.506Z,6.71
2022-09-23T00:29:19.055Z,6.62
2022-09-23T00:37:42.040Z,6.57
2022-09-23T00:46:08.560Z,6.58
2022-09-23T00:54:32.209Z,6.65
2022-09-23T01:02:56.097Z,6.72
2022-09-23T01:11:26.629Z,6.76
2022-09-23T01:19:50.040Z,6.86
2022-09-23T01:28:41.024Z,6.92
2022-09-23T01:37:13.464Z,6.96
2022-09-23T01:45:54.611Z,7.00
2022-09-23T01:54:29.437Z,6.97
2022-09-23T02:03:05.376Z,6.85
2022-09-23T02:11:36.563Z,6.67
2022-09-23T02:20:06.609Z,6.60
2022-09-23T02:28:42.635Z,6.49
2022-09-23T02:37:09.512Z,6.25
2022-09-23T02:45:34.502Z,5.96
2022-09-23T02:53:59.066Z,5.75
2022-09-23T03:02:40.052Z,5.67
2022-09-23T03:11:14.422Z,5.61
2022-09-23T03:19:51.289Z,5.60
2022-09-23T03:28:17.555Z,5.52
2022-09-23T03:37:01.104Z,5.49
2022-09-23T03:45:32.111Z,5.57
2022-09-23T03:53:55.171Z,5.60
2022-09-23T04:02:21.495Z,5.59
2022-09-23T04:10:46.399Z,5.61
2022-09-23T04:19:12.844Z,5.59
2022-09-23T04:27:37.965Z,5.68
2022-09-23T04:36:02.505Z,5.87
2022-09-23T04:44:27.655Z,5.99
2022-09-23T04:52:52.634Z,6.10
2022-09-23T05:01:20.117Z,6.16
2022-09-23T05:09:43.428Z,6.12
2022-09-23T05:18:06.383Z,6.14
2022-09-23T05:26:31.720Z,6.25
2022-09-23T05:34:57.061Z,6.41
2022-09-23T05:43:19.999Z,6.50
2022-09-23T05:51:43.059Z,6.47
2022-09-23T06:00:07.982Z,6.63
2022-09-23T06:08:35.062Z,6.98
2022-09-23T06:16:57.963Z,7.16
2022-09-23T06:25:23.173Z,7.25
2022-09-23T06:33:47.294Z,7.38
2022-09-23T06:42:10.407Z,7.63
2022-09-23T06:50:35.236Z,8.14
2022-09-23T06:58:58.357Z,8.63
2022-09-23T07:07:21.195Z,8.81
2022-09-23T07:15:53.325Z,9.08
2022-09-23T07:24:17.189Z,9.40
2022-09-23T07:32:48.561Z,9.72
2022-09-23T07:41:17.368Z,10.20
2022-09-23T07:49:42.403Z,10.67
2022-09-23T07:58:06.088Z,11.14
2022-09-23T08:06:29.211Z,11.47
2022-09-23T08:14:53.543Z,11.91
2022-09-23T08:23:17.452Z,12.43
2022-09-23T08:31:41.201Z,12.88
2022-09-23T08:40:05.315Z,13.00
2022-09-23T08:48:48.259Z,12.97
2022-09-23T08:57:27.272Z,12.95
2022-09-23T09:05:55.291Z,12.76
2022-09-23T09:14:43.360Z,12.75
2022-09-23T09:23:20.296Z,12.80
2022-09-23T09:31:48.950Z,12.84
2022-09-23T09:40:14.264Z,13.00
2022-09-23T09:48:54.386Z,13.22
2022-09-23T09:57:41.525Z,13.44
2022-09-23T10:06:17.884Z,13.68
2022-09-23T10:14:42.474Z,13.88
2022-09-23T10:23:19.424Z,14.05
2022-09-23T10:31:43.572Z,14.13
2022-09-23T10:40:44.788Z,14.26
2022-09-23T10:49:33.373Z,14.23
2022-09-23T10:58:33.747Z,14.14
2022-09-23T11:07:38.352Z,14.11
2022-09-23T11:16:21.788Z,14.23
2022-09-23T11:25:09.246Z,14.11
2022-09-23T11:33:44.792Z,14.11
2022-09-23T11:42:19.849Z,14.12
2022-09-23T11:51:00.555Z,14.04
2022-09-23T11:59:41.178Z,14.20
2022-09-23T12:08:25.319Z,14.30
2022-09-23T12:17:25.125Z,14.46
2022-09-23T12:26:03.218Z,14.59
2022-09-23T12:34:40.277Z,14.56
2022-09-23T12:43:03.399Z,14.54
2022-09-23T12:51:28.173Z,14.69
2022-09-23T13:00:13.441Z,14.55
2022-09-23T13:08:43.824Z,14.31
2022-09-23T13:17:08.231Z,13.90
2022-09-23T13:25:35.496Z,13.49
2022-09-23T13:34:06.835Z,13.41
2022-09-23T13:42:30.978Z,13.61
2022-09-23T13:50:54.869Z,13.86
2022-09-23T13:59:27.563Z,13.97
2022-09-23T14:07:58.759Z,14.00
2022-09-23T14:16:27.505Z,14.04
2022-09-23T14:24:51.701Z,13.75
2022-09-23T14:33:26.883Z,13.51
2022-09-23T14:41:50.262Z,13.50
2022-09-23T14:50:37.608Z,13.41
2022-09-23T14:59:01.000Z,13.39
2022-09-23T15:07:24.082Z,13.42
2022-09-23T15:15:48.622Z,13.29
2022-09-23T15:24:45.573Z,13.07
2022-09-23T15:33:16.305Z,12.74
2022-09-23T15:41:43.661Z,12.39
2022-09-23T15:50:07.467Z,12.04
2022-09-23T15:59:08.881Z,11.72
2022-09-23T16:09:01.686Z,11.40
2022-09-23T17:01:26.000Z,10.02
2022-09-23T17:09:54.116Z,9.59
2022-09-23T17:25:50.769Z,8.83
2022-09-23T17:46:27.813Z,8.06
2022-09-23T18:00:00.607Z,7.65
2022-09-23T18:08:25.425Z,7.44
2022-09-23T18:16:51.526Z,7.32
2022-09-23T18:25:37.663Z,7.14
2022-09-23T18:33:58.920Z,6.89
2022-09-23T18:42:24.192Z,6.63
2022-09-23T18:50:51.841Z,6.49
2022-09-23T18:59:21.109Z,6.33
2022-09-23T19:07:44.127Z,6.21
2022-09-23T19:16:16.943Z,6.12
2022-09-23T19:24:39.998Z,5.91
2022-09-23T19:33:03.374Z,5.70
2022-09-23T19:41:33.478Z,5.59
2022-09-23T19:49:56.641Z,5.43
2022-09-23T19:58:19.952Z,5.22
2022-09-23T20:06:43.815Z,5.11
2022-09-23T20:15:07.186Z,5.15
2022-09-23T20:23:30.226Z,5.25
2022-09-23T20:31:53.273Z,5.45
2022-09-23T20:40:17.270Z,5.61
2022-09-23T20:48:41.444Z,5.77
2022-09-23T20:57:06.868Z,5.85
2022-09-23T21:05:31.020Z,5.90
2022-09-23T21:13:55.178Z,5.92
2022-09-23T21:22:19.202Z,5.91
2022-09-23T21:30:49.734Z,5.84
2022-09-23T21:39:15.634Z,5.78
2022-09-23T21:47:40.076Z,5.70
2022-09-23T21:56:21.029Z,5.65
2022-09-23T22:04:47.928Z,5.55
2022-09-23T22:13:13.024Z,5.39
2022-09-23T22:21:39.680Z,5.25
2022-09-23T22:30:21.383Z,5.18
2022-09-23T22:38:44.671Z,5.14
2022-09-23T22:47:09.567Z,5.20
2022-09-23T22:55:32.767Z,5.29
2022-09-23T23:04:03.352Z,5.42
2022-09-23T23:12:26.487Z,5.61
2022-09-23T23:20:51.294Z,5.64
2022-09-23T23:29:17.544Z,5.51
2022-09-23T23:37:41.506Z,5.37
2022-09-23T23:46:07.722Z,5.24
2022-09-23T23:54:33.046Z,5.08
